createdAt,value
2022-08-17T00:01:57.698Z,5.82
2022-08-17T00:04:38.223Z,2.95
2022-08-17T00:07:14.890Z,5.22
2022-08-17T00:09:51.878Z,3.67
2022-08-17T00:12:42.885Z,9.07
2022-08-17T00:15:23.697Z,4.07
2022-08-17T00:18:00.174Z,3.63
2022-08-17T00:20:37.233Z,3.63
2022-08-17T00:23:17.762Z,2.28
2022-08-17T00:25:54.445Z,3.67
2022-08-17T00:28:33.261Z,5.47
2022-08-17T00:31:13.106Z,4.43
2022-08-17T00:33:49.587Z,5.20
2022-08-17T00:36:27.137Z,5.07
2022-08-17T00:39:03.713Z,4.25
2022-08-17T00:41:42.544Z,5.10
2022-08-17T00:44:19.514Z,4.20
2022-08-17T00:46:58.305Z,5.80
2022-08-17T00:49:34.545Z,3.33
2022-08-17T00:52:22.255Z,3.53
2022-08-17T00:55:00.032Z,3.00
2022-08-17T00:57:45.471Z,3.38
2022-08-17T01:00:28.188Z,2.25
2022-08-17T01:03:10.126Z,4.82
2022-08-17T01:05:51.416Z,4.13
2022-08-17T01:08:33.159Z,6.18
2022-08-17T01:11:14.803Z,3.00
2022-08-17T01:13:52.074Z,6.13
2022-08-17T01:16:30.318Z,2.10
2022-08-17T01:19:10.952Z,2.65
2022-08-17T01:21:52.947Z,2.97
2022-08-17T01:24:30.326Z,1.77
2022-08-17T01:27:15.488Z,4.05
2022-08-17T01:29:58.542Z,4.05
2022-08-17T01:32:35.300Z,6.20
2022-08-17T01:35:13.642Z,1.77
2022-08-17T01:37:49.603Z,2.78
2022-08-17T01:40:34.449Z,2.58
2022-08-17T01:43:17.493Z,2.30
2022-08-17T01:46:03.184Z,5.75
2022-08-17T01:48:39.443Z,5.60
2022-08-17T01:51:16.467Z,3.42
2022-08-17T01:53:56.210Z,2.88
2022-08-17T01:56:36.230Z,5.30
2022-08-17T01:59:12.364Z,4.20
2022-08-17T02:01:50.268Z,3.55
2022-08-17T02:04:26.539Z,5.45
2022-08-17T02:07:04.436Z,3.42
2022-08-17T02:09:41.321Z,3.13
2022-08-17T02:12:37.603Z,3.42
2022-08-17T02:15:16.894Z,4.30
2022-08-17T02:17:54.929Z,2.50
2022-08-17T02:20:41.934Z,3.45
2022-08-17T02:23:21.175Z,2.88
2022-08-17T02:25:58.946Z,3.63
2022-08-17T02:28:36.811Z,4.00
2022-08-17T02:31:14.845Z,3.22
2022-08-17T02:34:03.428Z,3.78
2022-08-17T02:36:41.918Z,2.85
2022-08-17T02:39:20.328Z,3.97
2022-08-17T02:42:04.306Z,4.68
2022-08-17T02:44:42.980Z,4.28
2022-08-17T02:47:19.442Z,4.28
2022-08-17T02:49:56.454Z,5.07
2022-08-17T02:52:42.399Z,5.22
2022-08-17T02:55:35.429Z,3.10
2022-08-17T02:58:12.501Z,3.42
2022-08-17T03:00:53.011Z,3.00
2022-08-17T03:03:31.448Z,4.97
2022-08-17T03:06:09.194Z,3.50
2022-08-17T03:08:46.823Z,2.97
2022-08-17T03:11:23.678Z,3.20
2022-08-17T03:14:01.312Z,3.78
2022-08-17T03:16:40.399Z,3.80
2022-08-17T03:19:17.461Z,5.22
2022-08-17T03:21:55.081Z,4.38
2022-08-17T03:24:32.309Z,3.88
2022-08-17T03:27:09.323Z,5.05
2022-08-17T03:29:46.871Z,3.72
2022-08-17T03:32:24.636Z,3.88
2022-08-17T03:35:05.410Z,2.88
2022-08-17T03:37:43.229Z,5.50
2022-08-17T03:40:55.183Z,3.13
2022-08-17T03:43:16.732Z,4.07
2022-08-17T03:46:10.084Z,4.78
2022-08-17T03:49:21.224Z,5.50
2022-08-17T03:52:14.205Z,4.03
2022-08-17T03:55:07.269Z,4.72
2022-08-17T03:57:44.828Z,3.95
2022-08-17T04:00:21.654Z,4.32
2022-08-17T04:02:58.578Z,5.30
2022-08-17T04:05:37.757Z,5.65
2022-08-17T04:08:14.123Z,6.05
2022-08-17T04:10:51.525Z,5.07
2022-08-17T04:13:28.779Z,3.42
2022-08-17T04:16:08.887Z,6.25
2022-08-17T04:18:45.251Z,5.65
2022-08-17T04:21:24.688Z,5.10
2022-08-17T04:24:02.664Z,6.10
2022-08-17T04:26:52.645Z,3.90
2022-08-17T04:29:55.144Z,4.45
2022-08-17T04:33:03.435Z,5.97
2022-08-17T04:35:30.459Z,4.50
2022-08-17T04:38:11.170Z,4.13
2022-08-17T04:41:05.931Z,3.97
2022-08-17T04:43:43.854Z,5.38
2022-08-17T04:46:23.882Z,4.57
2022-08-17T04:49:01.413Z,6.63
2022-08-17T04:51:45.523Z,4.93
2022-08-17T04:54:32.556Z,3.88
2022-08-17T04:57:11.673Z,5.90
2022-08-17T04:59:47.584Z,5.38
2022-08-17T05:02:25.339Z,6.68
2022-08-17T05:05:04.097Z,3.95
2022-08-17T05:07:40.573Z,5.05
2022-08-17T05:10:19.395Z,6.00
2022-08-17T05:13:03.601Z,3.63
2022-08-17T05:15:44.910Z,5.40
2022-08-17T05:18:24.525Z,4.60
2022-08-17T05:21:02.357Z,5.43
2022-08-17T05:23:42.765Z,7.78
2022-08-17T05:26:26.905Z,5.07
2022-08-17T05:29:04.417Z,3.60
2022-08-17T05:31:43.882Z,6.55
2022-08-17T05:34:22.088Z,5.93
2022-08-17T05:36:59.909Z,3.78
2022-08-17T05:39:38.912Z,6.07
2022-08-17T05:42:16.507Z,3.38
2022-08-17T05:44:53.832Z,4.35
2022-08-17T05:47:32.180Z,4.63
2022-08-17T05:50:11.893Z,5.18
2022-08-17T05:53:00.855Z,4.60
2022-08-17T05:55:46.353Z,3.85
2022-08-17T05:58:29.292Z,3.05
2022-08-17T06:01:13.735Z,5.70
2022-08-17T06:04:00.583Z,4.22
2022-08-17T06:06:46.498Z,3.10
2022-08-17T06:09:34.103Z,4.65
2022-08-17T06:12:29.788Z,3.15
2022-08-17T06:15:28.079Z,6.45
2022-08-17T06:18:18.593Z,4.53
2022-08-17T06:20:59.955Z,4.88
2022-08-17T06:23:39.686Z,5.47
2022-08-17T06:26:21.937Z,3.75
2022-08-17T06:29:04.841Z,5.60
2022-08-17T06:31:47.987Z,5.60
2022-08-17T06:34:24.736Z,6.38
2022-08-17T06:37:11.018Z,5.55
2022-08-17T06:39:58.621Z,3.75
2022-08-17T06:43:05.150Z,4.88
2022-08-17T06:45:45.597Z,5.25
2022-08-17T06:48:28.219Z,3.33
2022-08-17T06:51:06.674Z,4.45
2022-08-17T06:53:48.525Z,4.60
2022-08-17T06:56:53.902Z,4.28
2022-08-17T06:59:54.918Z,5.55
2022-08-17T07:02:52.351Z,7.55
2022-08-17T07:05:38.675Z,3.58
2022-08-17T07:08:29.333Z,4.13
2022-08-17T07:11:10.739Z,4.63
2022-08-17T07:13:52.793Z,3.47
2022-08-17T07:16:34.686Z,4.97
2022-08-17T07:19:12.865Z,6.18
2022-08-17T07:22:01.796Z,4.72
2022-08-17T07:24:46.306Z,4.88
2022-08-17T07:27:24.911Z,6.15
2022-08-17T07:30:10.573Z,5.88
2022-08-17T07:32:50.709Z,5.28
2022-08-17T07:35:44.269Z,7.78
2022-08-17T07:38:27.140Z,6.93
2022-08-17T07:41:10.601Z,6.47
2022-08-17T07:43:54.510Z,6.65
2022-08-17T07:46:50.582Z,6.68
2022-08-17T07:49:37.642Z,6.47
2022-08-17T07:52:48.114Z,7.50
2022-08-17T07:55:31.951Z,5.35
2022-08-17T07:58:08.420Z,7.88
2022-08-17T08:00:44.745Z,8.82
2022-08-17T08:03:33.529Z,6.05
2022-08-17T08:06:25.296Z,6.10
2022-08-17T08:09:03.146Z,7.45
2022-08-17T08:11:44.426Z,8.38
2022-08-17T08:14:36.351Z,5.85
2022-08-17T08:17:14.841Z,9.38
2022-08-17T08:19:51.958Z,8.07
2022-08-17T08:22:33.482Z,10.05
2022-08-17T08:25:23.677Z,12.35
2022-08-17T08:28:25.362Z,9.98
2022-08-17T08:31:08.403Z,8.93
2022-08-17T08:33:56.620Z,11.48
2022-08-17T08:37:13.105Z,12.90
2022-08-17T08:39:52.801Z,13.48
2022-08-17T08:42:34.686Z,7.55
2022-08-17T08:45:21.288Z,10.90
2022-08-17T08:48:52.790Z,6.32
2022-08-17T08:51:19.040Z,8.93
2022-08-17T08:54:05.744Z,9.88
2022-08-17T08:57:11.943Z,10.73
2022-08-17T08:59:57.701Z,8.88
2022-08-17T09:03:07.920Z,9.63
2022-08-17T09:06:37.622Z,8.48
2022-08-17T09:09:22.580Z,10.70
2022-08-17T09:12:09.338Z,6.18
2022-08-17T09:14:57.216Z,7.75
2022-08-17T09:18:08.612Z,10.43
2022-08-17T09:20:54.494Z,8.82
2022-08-17T09:23:38.739Z,9.40
2022-08-17T09:26:26.265Z,7.80
2022-08-17T09:29:07.141Z,10.23
2022-08-17T09:31:56.778Z,15.05
2022-08-17T09:34:43.587Z,10.35
2022-08-17T09:37:27.511Z,15.05
2022-08-17T09:40:16.908Z,8.32
2022-08-17T09:42:57.410Z,12.40
2022-08-17T09:45:40.374Z,9.18
2022-08-17T09:48:24.119Z,9.10
2022-08-17T09:51:08.725Z,6.75
2022-08-17T09:53:45.322Z,7.97
2022-08-17T09:56:46.005Z,8.57
2022-08-17T09:59:38.770Z,7.78
2022-08-17T10:02:34.022Z,7.32
2022-08-17T10:05:17.859Z,8.52
2022-08-17T10:08:10.338Z,11.60
2022-08-17T10:10:56.219Z,11.30
2022-08-17T10:13:52.763Z,10.40
2022-08-17T10:16:41.270Z,11.60
2022-08-17T10:19:24.228Z,10.93
2022-08-17T10:22:35.064Z,12.50
2022-08-17T10:25:53.558Z,10.55
2022-08-17T10:28:34.429Z,10.77
2022-08-17T10:34:41.210Z,12.32
2022-08-17T10:37:42.815Z,17.67
2022-08-17T10:40:36.434Z,15.43
2022-08-17T10:43:31.020Z,12.50
2022-08-17T10:46:31.352Z,13.27
2022-08-17T10:49:31.391Z,11.00
2022-08-17T10:52:09.171Z,10.45
2022-08-17T10:54:56.723Z,10.40
2022-08-17T10:57:47.827Z,12.20
2022-08-17T11:01:14.549Z,9.40
2022-08-17T11:03:59.276Z,11.10
2022-08-17T11:06:45.492Z,9.88
2022-08-17T11:09:43.262Z,13.38
2022-08-17T11:12:39.723Z,12.85
2022-08-17T11:15:30.887Z,10.45
2022-08-17T11:18:33.806Z,13.02
2022-08-17T11:21:34.528Z,13.82
2022-08-17T11:24:20.890Z,13.30
2022-08-17T11:27:24.563Z,9.80
2022-08-17T11:30:03.983Z,10.35
2022-08-17T11:32:53.013Z,9.65
2022-08-17T11:35:43.867Z,10.35
2022-08-17T11:38:28.463Z,10.45
2022-08-17T11:41:24.050Z,11.82
2022-08-17T11:44:22.631Z,8.48
2022-08-17T11:47:29.599Z,14.98
2022-08-17T11:50:54.293Z,9.15
2022-08-17T11:58:03.496Z,12.27
2022-08-17T12:01:01.987Z,9.02
2022-08-17T12:03:55.620Z,8.48
2022-08-17T12:06:47.223Z,9.70
2022-08-17T12:09:26.730Z,9.52
2022-08-17T12:12:12.595Z,12.77
2022-08-17T12:15:10.049Z,12.20
2022-08-17T12:17:50.182Z,12.43
2022-08-17T12:20:35.998Z,10.13
2022-08-17T12:23:25.199Z,11.80
2022-08-17T12:26:06.759Z,12.38
2022-08-17T12:28:49.046Z,12.90
2022-08-17T12:31:30.294Z,10.55
2022-08-17T12:34:07.319Z,9.23
2022-08-17T12:36:46.665Z,10.48
2022-08-17T12:39:28.738Z,13.15
2022-08-17T12:42:25.603Z,10.00
2022-08-17T12:45:02.780Z,8.68
2022-08-17T12:47:42.285Z,9.48
2022-08-17T12:50:29.207Z,10.57
2022-08-17T12:53:08.076Z,12.48
2022-08-17T12:55:47.087Z,13.15
2022-08-17T12:58:26.595Z,10.68
2022-08-17T13:01:06.635Z,9.55
2022-08-17T13:03:50.990Z,12.60
2022-08-17T13:06:34.070Z,12.07
2022-08-17T13:09:17.641Z,9.85
2022-08-17T13:12:01.448Z,12.65
2022-08-17T13:14:38.804Z,12.68
2022-08-17T13:17:18.047Z,9.75
2022-08-17T13:19:57.667Z,10.57
2022-08-17T13:22:36.368Z,9.95
2022-08-17T13:25:18.095Z,9.48
2022-08-17T13:28:00.254Z,12.30
2022-08-17T13:30:37.300Z,9.35
2022-08-17T13:33:44.654Z,13.45
2022-08-17T13:36:31.719Z,11.35
2022-08-17T13:39:21.058Z,10.73
2022-08-17T13:42:02.188Z,12.18
2022-08-17T13:44:50.422Z,8.63
2022-08-17T13:47:27.637Z,10.85
2022-08-17T13:50:05.044Z,11.13
2022-08-17T13:52:50.053Z,7.65
2022-08-17T13:55:28.611Z,9.82
2022-08-17T13:58:07.422Z,10.57
2022-08-17T14:00:46.450Z,9.55
2022-08-17T14:03:28.472Z,10.52
2022-08-17T14:06:13.252Z,11.02
2022-08-17T14:09:10.528Z,12.38
2022-08-17T14:11:47.045Z,12.30
2022-08-17T14:14:24.793Z,13.32
2022-08-17T14:17:05.763Z,10.45
2022-08-17T14:19:46.083Z,12.88
2022-08-17T14:22:30.990Z,10.98
2022-08-17T14:25:10.704Z,10.48
2022-08-17T14:27:53.516Z,11.38
2022-08-17T14:30:34.339Z,10.27
2022-08-17T14:33:14.549Z,9.55
2022-08-17T14:35:53.190Z,11.63
2022-08-17T14:38:30.383Z,11.55
2022-08-17T14:41:06.807Z,14.13
2022-08-17T14:43:43.983Z,9.95
2022-08-17T14:46:20.837Z,9.68
2022-08-17T14:48:59.561Z,9.50
2022-08-17T14:51:37.821Z,9.15
2022-08-17T14:54:34.094Z,8.63
2022-08-17T14:57:32.981Z,9.07
2022-08-17T15:00:07.572Z,10.40
2022-08-17T15:02:55.299Z,9.90
2022-08-17T15:05:36.248Z,9.65
2022-08-17T15:08:13.789Z,11.43
2022-08-17T15:10:54.223Z,10.75
2022-08-17T15:13:32.183Z,8.40
2022-08-17T15:16:09.031Z,8.73
2022-08-17T15:18:47.054Z,9.95
2022-08-17T15:21:24.955Z,9.63
2022-08-17T15:24:02.241Z,9.07
2022-08-17T15:26:41.110Z,9.73
2022-08-17T15:29:19.700Z,9.27
2022-08-17T15:32:00.615Z,10.18
2022-08-17T15:34:39.550Z,11.27
2022-08-17T15:37:18.087Z,7.88
2022-08-17T15:40:02.437Z,7.47
2022-08-17T15:42:48.075Z,9.07
2022-08-17T15:45:32.702Z,10.63
2022-08-17T15:48:09.593Z,10.52
2022-08-17T15:50:47.664Z,11.20
2022-08-17T15:53:27.952Z,8.85
2022-08-17T15:56:05.481Z,8.50
2022-08-17T15:58:44.163Z,12.52
2022-08-17T16:03:01.249Z,8.65
2022-08-17T16:04:26.488Z,7.18
2022-08-17T16:07:07.460Z,10.10
2022-08-17T16:09:45.802Z,8.52
2022-08-17T16:12:23.493Z,10.02
2022-08-17T16:15:02.800Z,11.02
2022-08-17T16:17:42.769Z,7.70
2022-08-17T16:20:23.229Z,8.70
2022-08-17T16:23:01.131Z,11.45
2022-08-17T16:25:52.815Z,7.93
2022-08-17T16:28:35.676Z,8.60
2022-08-17T16:31:11.974Z,9.05
2022-08-17T16:33:58.493Z,9.32
2022-08-17T16:36:55.198Z,10.73
2022-08-17T16:39:37.839Z,10.48
2022-08-17T16:42:28.521Z,8.75
2022-08-17T16:45:11.550Z,8.40
2022-08-17T16:47:48.921Z,8.85
2022-08-17T16:50:26.931Z,9.98
2022-08-17T16:53:12.176Z,10.13
2022-08-17T16:55:49.004Z,11.00
2022-08-17T16:58:29.514Z,11.02
2022-08-17T17:01:05.538Z,9.95
2022-08-17T17:03:54.067Z,10.88
2022-08-17T17:06:45.455Z,9.02
2022-08-17T17:09:29.503Z,8.63
2022-08-17T17:12:09.512Z,10.02
2022-08-17T17:14:53.415Z,9.50
2022-08-17T17:17:34.696Z,8.82
2022-08-17T17:20:18.056Z,10.38
2022-08-17T17:22:58.995Z,7.88
2022-08-17T17:25:41.302Z,11.85
2022-08-17T17:28:27.932Z,7.60
2022-08-17T17:31:12.290Z,11.63
2022-08-17T17:33:54.176Z,9.43
2022-08-17T17:36:36.683Z,9.48
2022-08-17T17:39:18.378Z,8.68
2022-08-17T17:42:03.664Z,12.13
2022-08-17T17:44:43.942Z,10.75
2022-08-17T17:47:22.734Z,8.73
2022-08-17T17:49:59.405Z,9.32
2022-08-17T17:52:44.024Z,8.15
2022-08-17T17:55:39.763Z,9.23
2022-08-17T17:58:37.555Z,10.55
2022-08-17T18:01:30.031Z,10.00
2022-08-17T18:04:25.041Z,9.20
2022-08-17T18:07:19.091Z,12.43
2022-08-17T18:10:19.663Z,10.88
2022-08-17T18:13:19.766Z,11.07
2022-08-17T18:16:02.381Z,11.20
2022-08-17T18:18:46.196Z,11.95
2022-08-17T18:21:40.924Z,9.32
2022-08-17T18:24:17.946Z,11.35
2022-08-17T18:26:58.844Z,11.43
2022-08-17T18:29:48.742Z,9.07
2022-08-17T18:32:35.227Z,8.95
2022-08-17T18:35:58.845Z,8.57
2022-08-17T18:38:42.948Z,10.98
2022-08-17T18:41:29.385Z,8.85
2022-08-17T18:44:14.832Z,12.88
2022-08-17T18:46:51.593Z,9.55
2022-08-17T18:49:34.041Z,9.45
2022-08-17T18:52:19.312Z,8.57
2022-08-17T18:55:12.538Z,9.00
2022-08-17T18:57:51.081Z,8.77
2022-08-17T19:00:40.023Z,10.27
2022-08-17T19:03:29.599Z,10.48
2022-08-17T19:06:25.637Z,10.10
2022-08-17T19:09:05.425Z,8.18
2022-08-17T19:11:44.209Z,10.90
2022-08-17T19:14:21.367Z,8.50
2022-08-17T19:17:00.972Z,8.32
2022-08-17T19:19:42.055Z,11.18
2022-08-17T19:22:29.342Z,7.35
2022-08-17T19:25:17.052Z,9.70
2022-08-17T19:28:01.650Z,8.32
2022-08-17T19:30:40.814Z,10.63
2022-08-17T19:33:21.325Z,10.20
2022-08-17T19:36:06.027Z,8.40
2022-08-17T19:38:54.828Z,10.57
2022-08-17T19:41:43.114Z,7.70
2022-08-17T19:44:40.032Z,8.50
2022-08-17T19:47:50.954Z,7.53
2022-08-17T19:50:25.493Z,8.50
2022-08-17T19:53:09.046Z,7.07
2022-08-17T19:55:58.618Z,6.13
2022-08-17T19:58:51.922Z,9.60
2022-08-17T20:01:42.185Z,8.82
2022-08-17T20:04:24.506Z,8.07
2022-08-17T20:07:13.258Z,8.68
2022-08-17T20:09:56.033Z,7.40
2022-08-17T20:12:38.024Z,7.10
2022-08-17T20:15:17.118Z,6.38
2022-08-17T20:17:55.469Z,6.97
2022-08-17T20:20:46.759Z,12.02
2022-08-17T20:23:45.243Z,9.32
2022-08-17T20:26:29.006Z,7.63
2022-08-17T20:29:39.621Z,8.57
2022-08-17T20:32:29.232Z,8.20
2022-08-17T20:35:32.281Z,10.73
2022-08-17T20:38:12.532Z,8.32
2022-08-17T20:41:17.256Z,10.02
2022-08-17T20:44:08.164Z,9.32
2022-08-17T20:47:08.099Z,9.57
2022-08-17T20:49:57.539Z,9.10
2022-08-17T20:53:00.137Z,7.65
2022-08-17T20:55:58.015Z,7.68
2022-08-17T20:58:52.408Z,7.68
2022-08-17T21:01:42.729Z,8.57
2022-08-17T21:04:50.245Z,7.30
2022-08-17T21:07:32.984Z,10.93
2022-08-17T21:10:24.952Z,9.70
2022-08-17T21:13:09.795Z,9.10
2022-08-17T21:15:54.230Z,11.23
2022-08-17T21:18:40.238Z,7.00
2022-08-17T21:21:31.030Z,14.00
2022-08-17T21:24:22.882Z,8.50
2022-08-17T21:27:10.057Z,10.70
2022-08-17T21:30:18.410Z,9.23
2022-08-17T21:33:28.901Z,7.57
2022-08-17T21:36:31.105Z,11.00
2022-08-17T21:39:21.438Z,9.95
2022-08-17T21:42:02.792Z,7.72
2022-08-17T21:44:44.357Z,8.93
2022-08-17T21:47:26.231Z,8.15
2022-08-17T21:50:21.806Z,8.63
2022-08-17T21:53:00.911Z,8.65
2022-08-17T21:55:40.655Z,8.52
2022-08-17T21:58:36.530Z,6.78
2022-08-17T22:01:24.053Z,7.88
2022-08-17T22:04:05.710Z,7.10
2022-08-17T22:06:56.678Z,6.90
2022-08-17T22:09:36.597Z,8.38
2022-08-17T22:12:19.198Z,9.18
2022-08-17T22:15:11.422Z,11.50
2022-08-17T22:17:50.890Z,9.00
2022-08-17T22:20:29.640Z,8.48
2022-08-17T22:23:36.312Z,8.82
2022-08-17T22:26:14.987Z,7.00
2022-08-17T22:28:54.240Z,7.07
2022-08-17T22:31:34.576Z,7.07
2022-08-17T22:34:20.034Z,6.05
2022-08-17T22:37:33.644Z,7.97
2022-08-17T22:40:10.882Z,5.53
2022-08-17T22:42:50.890Z,6.05
2022-08-17T22:45:28.345Z,5.30
2022-08-17T22:48:07.546Z,6.03
2022-08-17T22:50:43.310Z,6.75
2022-08-17T22:53:39.730Z,5.68
2022-08-17T22:56:38.673Z,5.03
2022-08-17T22:59:26.828Z,6.35
2022-08-17T23:02:25.286Z,8.13
2022-08-17T23:05:25.609Z,9.20
2022-08-17T23:08:03.007Z,7.75
2022-08-17T23:10:39.681Z,8.48
2022-08-17T23:13:18.630Z,5.85
2022-08-17T23:15:56.119Z,9.02
2022-08-17T23:18:33.193Z,11.40
2022-08-17T23:21:16.065Z,11.27
2022-08-17T23:24:04.861Z,6.75
2022-08-17T23:26:42.701Z,8.15
2022-08-17T23:29:21.745Z,9.40
2022-08-17T23:31:59.507Z,8.30
2022-08-17T23:34:37.554Z,9.55
2022-08-17T23:37:16.818Z,9.38
2022-08-17T23:39:52.989Z,10.27
2022-08-17T23:42:31.109Z,8.95
2022-08-17T23:45:07.391Z,8.93
2022-08-17T23:47:45.835Z,9.93
2022-08-17T23:50:22.404Z,6.72
2022-08-17T23:53:01.021Z,15.40
2022-08-17T23:55:37.281Z,8.30
2022-08-17T23:58:14.062Z,9.50
